Time;durP1;ratioP1;P1;durP2;ratioP2;P2;SDS_P1;SDS_P2;PMS_P1;PMS_P2;Temp;Humidity;BMP_temperature;BMP_pressure;BME280_temperature;BME280_humidity;BME280_pressure;Samples;Min_cycle;Max_cycle;Signal;HPM_P1;HPM_P2
2023/01/09 00:01:17;;;;;;;10.65;6.05;;;;;;;9.07;100.00;101733.34;2093989;28;20143;-74
2023/01/09 00:02:39;;;;;;;11.38;7.50;;;;;;;9.03;100.00;101743.72;2100274;28;20052;-74
2023/01/09 00:04:03;;;;;;;30.08;17.90;;;;;;;8.98;100.00;101740.03;2101935;28;20052;-74
2023/01/09 00:05:25;;;;;;;17.88;9.38;;;;;;;8.93;100.00;101734.56;2102096;28;20089;-74
2023/01/09 00:06:52;;;;;;;15.45;9.10;;;;;;;8.91;100.00;101741.53;2093820;28;20082;-74
2023/01/09 00:08:17;;;;;;;12.68;7.25;;;;;;;8.90;100.00;101741.47;2092344;28;20048;-74
2023/01/09 00:09:40;;;;;;;16.60;9.30;;;;;;;8.88;100.00;101735.22;2093688;28;20056;-74
2023/01/09 00:11:01;;;;;;;10.52;6.47;;;;;;;8.87;100.00;101739.59;2099965;28;20556;-74
2023/01/09 00:12:23;;;;;;;10.40;6.10;;;;;;;8.84;100.00;101736.88;2110382;28;20063;-75
2023/01/09 00:13:46;;;;;;;8.98;5.72;;;;;;;8.81;100.00;101739.38;2096374;28;20040;-74
2023/01/09 00:15:10;;;;;;;13.55;8.52;;;;;;;8.78;100.00;101741.91;2099723;28;20214;-74
2023/01/09 00:16:33;;;;;;;19.08;12.45;;;;;;;8.73;100.00;101741.69;2101957;28;20049;-75
2023/01/09 00:17:54;;;;;;;14.00;9.80;;;;;;;8.71;100.00;101738.13;2096168;28;20101;-74
2023/01/09 00:19:16;;;;;;;26.58;19.85;;;;;;;8.67;100.00;101736.19;2082699;28;20049;-75
2023/01/09 00:20:39;;;;;;;14.82;9.90;;;;;;;8.68;100.00;101742.38;2085388;28;20045;-75
2023/01/09 00:22:00;;;;;;;21.90;17.45;;;;;;;8.66;100.00;101737.03;2091035;28;20048;-74
2023/01/09 00:23:24;;;;;;;36.33;27.88;;;;;;;8.66;100.00;101746.69;2093372;28;20053;-74
2023/01/09 00:24:45;;;;;;;16.92;13.57;;;;;;;8.65;100.00;101742.25;2093733;28;20397;-75
2023/01/09 00:26:10;;;;;;;15.68;10.15;;;;;;;8.65;100.00;101750.16;2102558;28;20056;-75
2023/01/09 00:27:33;;;;;;;20.73;13.05;;;;;;;8.61;100.00;101741.22;2096105;28;20040;-74
2023/01/09 00:28:56;;;;;;;18.77;13.75;;;;;;;8.59;100.00;101748.19;2087897;28;20052;-74
2023/01/09 00:30:17;;;;;;;27.75;20.50;;;;;;;8.57;100.00;101747.22;2090775;28;20117;-74
2023/01/09 00:31:40;;;;;;;22.27;17.40;;;;;;;8.55;100.00;101754.16;2085327;28;20061;-75
2023/01/09 00:33:01;;;;;;;14.45;9.07;;;;;;;8.56;100.00;101742.78;2090842;28;20150;-75
2023/01/09 00:34:24;;;;;;;12.80;8.43;;;;;;;8.56;100.00;101750.69;2095263;28;20082;-74
2023/01/09 00:35:46;;;;;;;13.63;8.70;;;;;;;8.55;100.00;101747.97;2101908;28;20048;-75
2023/01/09 00:37:10;;;;;;;15.38;9.15;;;;;;;8.55;100.00;101750.63;2104222;28;20090;-75
2023/01/09 00:38:36;;;;;;;32.55;17.00;;;;;;;8.55;100.00;101753.25;2105885;28;20496;-75
2023/01/09 00:39:58;;;;;;;25.13;15.10;;;;;;;8.54;100.00;101751.44;2097690;28;20139;-75
2023/01/09 00:41:23;;;;;;;17.13;9.93;;;;;;;8.52;100.00;101754.03;2100707;28;20059;-75
2023/01/09 00:42:50;;;;;;;15.77;7.95;;;;;;;8.54;100.00;101754.09;2103716;28;20044;-74
2023/01/09 00:44:16;;;;;;;14.55;7.75;;;;;;;8.60;100.00;101751.72;2105958;28;20036;-75
2023/01/09 00:45:39;;;;;;;14.00;8.38;;;;;;;8.66;100.00;101751.97;2097373;28;20791;-74
2023/01/09 00:47:06;;;;;;;12.63;7.70;;;;;;;8.69;100.00;101752.06;2100911;28;20101;-75
2023/01/09 00:48:29;;;;;;;17.13;8.75;;;;;;;8.69;100.00;101755.59;2095913;28;20048;-75
2023/01/09 00:49:53;;;;;;;16.42;9.07;;;;;;;8.70;100.00;101748.59;2092422;28;20048;-74
2023/01/09 00:51:15;;;;;;;16.95;9.18;;;;;;;8.70;100.00;101756.50;2100868;28;20048;-74
2023/01/09 00:52:38;;;;;;;;;;;;;;;8.65;100.00;101750.16;2103665;28;20047;-75
2023/01/09 00:54:04;;;;;;;15.13;9.77;;;;;;;8.65;100.00;101753.69;2103248;28;19928;-74
2023/01/09 00:55:26;;;;;;;14.02;8.27;;;;;;;8.64;100.00;101749.25;2087169;28;20508;-74
2023/01/09 00:56:50;;;;;;;15.65;10.13;;;;;;;8.61;100.00;101754.38;2092339;28;20056;-74
2023/01/09 00:58:12;;;;;;;18.42;10.45;;;;;;;8.57;100.00;101756.84;2086405;28;20064;-75
2023/01/09 00:59:34;;;;;;;16.17;9.82;;;;;;;8.54;100.00;101754.09;2101092;28;20725;-75
2023/01/09 01:00:56;;;;;;;13.60;8.65;;;;;;;8.52;100.00;101764.56;2097708;28;20067;-74
2023/01/09 01:02:19;;;;;;;13.75;9.05;;;;;;;8.51;100.00;101760.13;2094924;28;20060;-75
2023/01/09 01:03:42;;;;;;;12.70;7.35;;;;;;;8.54;100.00;101765.50;2097366;28;20036;-75
2023/01/09 01:08:22;;;;;;;11.15;6.88;;;;;;;8.56;100.00;101755.94;2074505;28;20054;-75
2023/01/09 01:09:45;;;;;;;12.93;8.32;;;;;;;8.54;100.00;101760.25;2103067;28;20062;-75
2023/01/09 01:11:11;;;;;;;16.90;10.07;;;;;;;8.52;100.00;101751.41;2103755;28;20055;-75
2023/01/09 01:12:32;;;;;;;15.75;12.15;;;;;;;8.54;100.00;101754.09;2111839;28;20044;-75
2023/01/09 01:13:55;;;;;;;15.48;10.00;;;;;;;8.54;100.00;101754.97;2097522;28;20040;-74
2023/01/09 01:15:17;;;;;;;13.10;6.95;;;;;;;8.54;100.00;101743.56;2102263;28;20036;-75
2023/01/09 01:16:40;;;;;;;10.25;6.55;;;;;;;8.53;100.00;101753.22;2097300;28;20175;-75
2023/01/09 01:18:02;;;;;;;12.88;8.48;;;;;;;8.54;100.00;101747.09;2100770;28;20111;-75
2023/01/09 01:19:25;;;;;;;17.75;14.38;;;;;;;8.61;100.00;101745.59;2102664;28;20052;-75
2023/01/09 01:20:47;;;;;;;25.27;17.58;;;;;;;8.65;100.00;101743.16;2094122;28;20044;-76
2023/01/09 01:22:09;;;;;;;17.33;14.30;;;;;;;8.71;100.00;101746.03;2097592;28;20048;-75
2023/01/09 01:23:31;;;;;;;28.45;23.75;;;;;;;8.76;100.00;101747.09;2100130;28;20060;-74
2023/01/09 01:24:55;;;;;;;30.38;25.73;;;;;;;8.76;100.00;101748.84;2103219;28;20381;-75
2023/01/09 01:26:17;;;;;;;23.40;19.58;;;;;;;8.73;100.00;101749.59;2103003;28;20040;-75
2023/01/09 01:27:40;;;;;;;20.80;17.38;;;;;;;8.73;100.00;101746.06;2102738;28;20052;-75
2023/01/09 01:29:02;;;;;;;21.90;16.60;;;;;;;8.72;100.00;101746.94;2103294;28;20047;-75
2023/01/09 01:30:26;;;;;;;14.90;9.95;;;;;;;8.72;100.00;101749.56;2102684;28;20048;-75
2023/01/09 01:31:47;;;;;;;11.77;8.82;;;;;;;8.74;100.00;101747.88;2103097;28;20492;-75
2023/01/09 01:33:11;;;;;;;11.82;7.18;;;;;;;8.75;100.00;101742.66;2094388;28;20094;-75
2023/01/09 01:34:32;;;;;;;12.00;7.82;;;;;;;8.77;100.00;101753.25;2086026;28;20063;-75
2023/01/09 01:36:01;;;;;;;11.88;6.35;;;;;;;8.79;100.00;101752.47;2099336;28;20075;-75
2023/01/09 01:37:23;;;;;;;14.90;11.32;;;;;;;8.80;100.00;101738.47;2087379;28;20405;-75
2023/01/09 01:38:45;;;;;;;12.63;6.75;;;;;;;8.77;100.00;101743.63;2086493;28;20417;-75
2023/01/09 01:40:11;;;;;;;10.68;5.88;;;;;;;8.77;100.00;101741.00;2083808;28;20053;-75
2023/01/09 01:41:34;;;;;;;11.52;6.53;;;;;;;8.77;100.00;101745.38;2084479;28;20041;-75
2023/01/09 01:42:57;;;;;;;8.50;6.20;;;;;;;8.78;100.00;101745.44;2092046;28;20078;-74
2023/01/09 01:44:58;;;;;;;10.95;5.68;;;;;;;8.80;100.00;101745.47;2094696;28;20055;-74
2023/01/09 01:46:21;;;;;;;12.13;6.15;;;;;;;8.79;100.00;101744.56;2088919;28;20052;-74
2023/01/09 01:47:50;;;;;;;9.48;5.32;;;;;;;8.85;100.00;101743.03;2091871;28;20056;-75
2023/01/09 01:49:19;;;;;;;10.40;6.25;;;;;;;8.85;100.00;101740.41;2089060;28;20098;-75
2023/01/09 01:50:46;;;;;;;10.98;6.10;;;;;;;8.85;100.00;101736.03;2090145;28;20386;-74
2023/01/09 01:52:07;;;;;;;10.57;6.72;;;;;;;8.89;100.00;101731.75;2101521;28;20069;-75
2023/01/09 01:53:34;;;;;;;11.85;5.28;;;;;;;8.91;100.00;101741.53;2094545;28;20052;-75
2023/01/09 01:54:55;;;;;;;8.85;5.28;;;;;;;8.95;100.00;101745.16;2101174;28;20117;-74
2023/01/09 01:56:23;;;;;;;8.88;5.85;;;;;;;8.96;100.00;101742.59;2097283;28;20135;-75
2023/01/09 01:57:47;;;;;;;8.73;5.68;;;;;;;9.00;100.00;101743.59;2095247;28;20040;-75
2023/01/09 01:59:16;;;;;;;12.68;6.93;;;;;;;9.05;100.00;101736.78;2094570;28;20045;-76
2023/01/09 02:00:42;;;;;;;24.00;12.25;;;;;;;9.11;100.00;101737.00;2101909;28;20086;-75
2023/01/09 02:02:04;;;;;;;12.88;7.28;;;;;;;9.13;100.00;101730.03;2103018;28;20044;-75
2023/01/09 02:03:29;;;;;;;17.17;10.35;;;;;;;9.16;100.00;101727.53;2094021;28;20074;-74
2023/01/09 02:04:52;;;;;;;16.00;9.80;;;;;;;9.17;100.00;101724.06;2092004;28;20080;-75
2023/01/09 02:06:15;;;;;;;13.82;9.85;;;;;;;9.17;100.00;101727.59;2100535;28;20118;-75
2023/01/09 02:07:36;;;;;;;10.95;5.63;;;;;;;9.16;100.00;101725.78;2096757;28;20064;-75
2023/01/09 02:08:59;;;;;;;13.40;8.02;;;;;;;9.19;100.00;101709.19;2099500;28;20072;-75
2023/01/09 02:10:22;;;;;;;14.10;9.02;;;;;;;9.26;100.00;101715.56;2102865;28;20040;-75
2023/01/09 02:11:45;;;;;;;14.45;10.98;;;;;;;9.29;100.00;101710.44;2094243;28;20082;-75
2023/01/09 02:13:10;;;;;;;17.48;10.32;;;;;;;9.30;100.00;101704.31;2100439;28;20496;-75
2023/01/09 02:14:31;;;;;;;13.30;9.15;;;;;;;9.29;100.00;101702.53;2097002;28;20080;-74
2023/01/09 02:16:07;;;;;;;11.48;8.18;;;;;;;9.26;100.00;101707.66;2085822;28;20114;-75
2023/01/09 02:17:55;;;;;;;13.25;8.95;;;;;;;9.17;100.00;101708.25;2086865;28;20049;-75
2023/01/09 02:19:44;;;;;;;16.42;11.02;;;;;;;9.10;100.00;101699.25;2088530;28;20440;-75
2023/01/09 02:21:14;;;;;;;15.60;12.23;;;;;;;9.10;100.00;101706.25;2112128;28;20102;-75
2023/01/09 02:22:51;;;;;;;14.50;10.95;;;;;;;9.11;100.00;101705.41;2096714;28;20147;-74
2023/01/09 02:24:51;;;;;;;24.30;19.90;;;;;;;9.07;100.00;101701.75;2102553;28;20420;-74
2023/01/09 02:26:29;;;;;;;26.45;23.45;;;;;;;9.03;100.00;101702.47;2082317;28;20393;-75
2023/01/09 02:28:34;;;;;;;25.55;22.77;;;;;;;9.00;100.00;101701.44;2096663;28;20838;-75
2023/01/09 02:30:32;;;;;;;23.50;21.10;;;;;;;8.96;100.00;101703.09;2096330;28;20055;-75
2023/01/09 02:32:01;;;;;;;17.50;15.63;;;;;;;8.91;100.00;101699.41;2096676;28;20085;-75
2023/01/09 02:33:46;;;;;;;14.93;13.23;;;;;;;8.87;100.00;101691.31;2095218;28;20079;-75
2023/01/09 02:35:22;;;;;;;13.55;11.77;;;;;;;8.85;100.00;101693.00;2096460;28;20562;-75
2023/01/09 02:36:54;;;;;;;13.65;10.05;;;;;;;8.82;100.00;101698.16;2103610;28;20475;-75
2023/01/09 02:38:26;;;;;;;14.13;10.88;;;;;;;8.84;100.00;101693.84;2103801;28;20111;-75
2023/01/09 02:39:55;;;;;;;12.18;9.70;;;;;;;8.87;100.00;101694.84;2096950;28;20134;-75
2023/01/09 02:41:24;;;;;;;33.45;9.90;;;;;;;8.92;100.00;101695.03;2103152;28;20116;-75
2023/01/09 02:42:48;;;;;;;14.45;10.77;;;;;;;8.90;100.00;101688.81;2103346;28;20048;-75
2023/01/09 02:44:21;;;;;;;11.75;8.25;;;;;;;8.90;100.00;101689.69;2094082;28;20595;-75
2023/01/09 02:45:43;;;;;;;11.25;6.68;;;;;;;8.86;100.00;101693.03;2102541;28;20404;-75
2023/01/09 02:47:29;;;;;;;11.20;6.78;;;;;;;8.86;100.00;101692.19;2104260;28;20480;-75
2023/01/09 02:48:54;;;;;;;13.13;9.27;;;;;;;8.83;100.00;101695.56;2113399;28;20078;-75
2023/01/09 02:50:19;;;;;;;12.10;8.25;;;;;;;8.85;100.00;101696.53;2104284;28;20055;-74
2023/01/09 02:51:51;;;;;;;9.65;6.63;;;;;;;8.89;100.00;101695.81;2093307;28;20049;-75
2023/01/09 02:53:35;;;;;;;11.90;8.18;;;;;;;8.93;100.00;101695.06;2102475;28;20036;-74
2023/01/09 02:55:08;;;;;;;11.10;7.13;;;;;;;8.92;100.00;101706.47;2104064;28;20096;-75
2023/01/09 02:57:14;;;;;;;11.18;6.97;;;;;;;8.86;100.00;101702.72;2095644;28;20063;-75
2023/01/09 02:58:51;;;;;;;10.73;6.28;;;;;;;8.78;100.00;101700.69;2071311;28;20159;-75
2023/01/09 03:00:32;;;;;;;8.60;5.80;;;;;;;8.73;100.00;101699.59;2070975;28;20528;-75
2023/01/09 03:02:33;;;;;;;8.30;5.60;;;;;;;8.71;100.00;101698.66;2071350;28;20042;-75
2023/01/09 03:04:03;;;;;;;11.20;7.78;;;;;;;8.68;100.00;101706.41;2076963;28;20465;-74
2023/01/09 03:05:31;;;;;;;17.60;11.82;;;;;;;8.68;100.00;101695.00;2094826;28;20378;-74
2023/01/09 03:07:00;;;;;;;14.35;12.15;;;;;;;8.67;100.00;101704.63;2097987;28;20040;-75
2023/01/09 03:08:29;;;;;;;11.98;8.43;;;;;;;8.66;100.00;101708.09;2094080;28;20101;-75
2023/01/09 03:09:59;;;;;;;14.07;10.32;;;;;;;8.66;100.00;101705.44;2102892;28;20526;-75
2023/01/09 03:11:23;;;;;;;21.23;16.60;;;;;;;8.64;100.00;101704.53;2103512;28;20082;-75
2023/01/09 03:12:47;;;;;;;55.65;46.70;;;;;;;8.64;100.00;101699.25;2094103;28;20044;-75
2023/01/09 03:14:15;;;;;;;54.88;48.70;;;;;;;8.64;100.00;101699.25;2091907;28;20044;-75
2023/01/09 03:15:39;;;;;;;28.60;24.75;;;;;;;8.66;100.00;101705.44;2094512;28;20043;-75
2023/01/09 03:17:08;;;;;;;44.17;38.38;;;;;;;8.68;100.00;101705.50;2092084;28;20474;-75
2023/01/09 03:18:33;;;;;;;37.63;32.72;;;;;;;8.68;100.00;101710.78;2101047;28;20036;-75
2023/01/09 03:19:56;;;;;;;25.58;22.15;;;;;;;8.66;100.00;101704.59;2102600;28;20056;-75
2023/01/09 03:21:20;;;;;;;24.08;19.92;;;;;;;8.62;100.00;101703.56;2102273;28;20071;-75
2023/01/09 03:22:51;;;;;;;23.35;17.42;;;;;;;8.58;100.00;101704.28;2094110;28;20048;-75
2023/01/09 03:24:14;;;;;;;25.52;20.95;;;;;;;8.53;100.00;101708.47;2093732;28;20260;-75
2023/01/09 03:25:36;;;;;;;26.80;21.63;;;;;;;8.50;100.00;101713.59;2093782;28;20055;-75
2023/01/09 03:26:58;;;;;;;22.77;18.95;;;;;;;8.46;100.00;101711.72;2102031;28;20263;-75
2023/01/09 03:28:28;;;;;;;19.92;17.25;;;;;;;8.45;100.00;101717.81;2088238;28;20513;-75
2023/01/09 03:29:52;;;;;;;15.88;13.05;;;;;;;8.44;100.00;101709.84;2093121;28;20040;-75
2023/01/09 03:31:15;;;;;;;15.75;11.05;;;;;;;8.45;100.00;101720.44;2094004;28;20114;-75
2023/01/09 03:32:37;;;;;;;13.52;8.60;;;;;;;8.47;100.00;101710.84;2097993;28;20040;-75
2023/01/09 03:34:01;;;;;;;11.65;8.00;;;;;;;8.49;100.00;101717.06;2093874;28;20169;-75
2023/01/09 03:35:24;;;;;;;12.95;8.73;;;;;;;8.53;100.00;101721.63;2098289;28;20090;-75
2023/01/09 03:36:46;;;;;;;14.60;9.80;;;;;;;8.57;100.00;101720.91;2102228;28;20043;-75
2023/01/09 03:38:09;;;;;;;14.80;9.00;;;;;;;8.61;100.00;101728.06;2102303;28;20068;-75
2023/01/09 03:39:30;;;;;;;12.38;8.48;;;;;;;8.65;100.00;101730.00;2101864;28;20079;-75
2023/01/09 03:40:53;;;;;;;14.52;9.30;;;;;;;8.69;100.00;101726.63;2093028;28;20044;-75
2023/01/09 03:42:15;;;;;;;13.90;9.35;;;;;;;8.71;100.00;101732.88;2091475;28;20049;-75
2023/01/09 03:43:38;;;;;;;13.80;8.13;;;;;;;8.73;100.00;101730.28;2106323;28;20069;-75
2023/01/09 03:45:01;;;;;;;12.98;8.20;;;;;;;8.72;100.00;101729.41;2096514;28;20101;-75
2023/01/09 03:46:22;;;;;;;14.02;9.10;;;;;;;8.70;100.00;101730.16;2091449;28;20036;-75
2023/01/09 03:47:44;;;;;;;13.38;8.23;;;;;;;8.65;100.00;101721.22;2097099;28;20503;-75
2023/01/09 03:49:08;;;;;;;12.15;8.30;;;;;;;8.64;100.00;101732.56;2098941;28;20459;-75
2023/01/09 03:50:29;;;;;;;14.43;9.45;;;;;;;8.62;100.00;101729.88;2101411;28;20499;-75
2023/01/09 03:51:51;;;;;;;14.85;9.10;;;;;;;8.61;100.00;101732.44;2101822;28;20094;-75
2023/01/09 03:53:17;;;;;;;13.77;8.32;;;;;;;8.64;100.00;101732.56;2093679;28;20044;-75
2023/01/09 03:54:38;;;;;;;16.08;8.45;;;;;;;8.68;100.00;101737.09;2091668;28;20041;-75
2023/01/09 03:56:01;;;;;;;10.85;7.43;;;;;;;8.67;100.00;101733.56;2092836;28;20040;-75
2023/01/09 03:57:24;;;;;;;12.80;7.68;;;;;;;8.64;100.00;101740.47;2102120;28;20044;-75
2023/01/09 03:58:48;;;;;;;15.52;9.88;;;;;;;8.59;100.00;101734.13;2093979;28;20076;-75
2023/01/09 04:00:12;;;;;;;20.98;12.85;;;;;;;8.57;100.00;101744.59;2102345;28;20043;-75
2023/01/09 04:01:33;;;;;;;25.60;15.68;;;;;;;8.55;100.00;101745.34;2099194;28;20055;-74
2023/01/09 04:02:55;;;;;;;20.90;13.05;;;;;;;8.54;100.00;101751.44;2104839;28;20051;-75
2023/01/09 04:04:19;;;;;;;25.77;16.90;;;;;;;8.54;100.00;101748.81;2102722;28;20056;-75
2023/01/09 04:05:42;;;;;;;28.05;20.15;;;;;;;8.52;100.00;101746.16;2100928;28;20630;-75
2023/01/09 04:07:05;;;;;;;40.80;34.70;;;;;;;8.52;100.00;101748.78;2102356;28;20048;-75
2023/01/09 04:08:27;;;;;;;47.00;40.70;;;;;;;8.56;100.00;101750.69;2092361;28;20043;-75
2023/01/09 04:09:49;;;;;;;55.97;46.13;;;;;;;8.63;100.00;101755.34;2091068;28;20748;-75
2023/01/09 04:11:10;;;;;;;50.25;42.53;;;;;;;8.70;100.00;101757.41;2085392;28;20053;-75
2023/01/09 04:12:33;;;;;;;32.60;26.80;;;;;;;8.77;100.00;101764.69;2090875;28;20048;-75
2023/01/09 04:13:55;;;;;;;38.35;33.92;;;;;;;8.81;100.00;101763.06;2089318;28;20059;-75
2023/01/09 04:15:18;;;;;;;36.80;29.98;;;;;;;8.83;100.00;101763.13;2086750;28;20070;-75
2023/01/09 04:16:39;;;;;;;26.02;22.02;;;;;;;8.83;100.00;101764.03;2097798;28;20480;-75
2023/01/09 04:18:03;;;;;;;20.50;13.73;;;;;;;8.82;100.00;101762.22;2099737;28;20048;-74
2023/01/09 04:19:27;;;;;;;13.68;9.60;;;;;;;8.85;100.00;101764.09;2093981;28;20508;-75
2023/01/09 04:20:48;;;;;;;14.23;8.93;;;;;;;8.86;100.00;101773.78;2092227;28;20070;-75
2023/01/09 04:22:11;;;;;;;11.35;7.35;;;;;;;8.85;100.00;101769.34;2100473;28;20055;-75
2023/01/09 04:23:34;;;;;;;14.85;8.68;;;;;;;8.85;100.00;101774.63;2085923;28;20041;-75
2023/01/09 04:24:56;;;;;;;12.07;8.40;;;;;;;8.83;100.00;101773.66;2096001;28;20106;-74
2023/01/09 04:26:18;;;;;;;12.75;8.52;;;;;;;8.79;100.00;101773.53;2098026;28;20040;-74
2023/01/09 04:27:40;;;;;;;12.82;7.75;;;;;;;8.75;100.00;101779.53;2097086;28;20048;-75
2023/01/09 04:29:02;;;;;;;9.40;7.05;;;;;;;8.75;100.00;101773.34;2092311;28;20135;-75
2023/01/09 04:30:25;;;;;;;11.77;7.65;;;;;;;8.72;100.00;101778.53;2094155;28;20063;-74
2023/01/09 04:31:47;;;;;;;10.07;7.55;;;;;;;8.67;100.00;101782.69;2095160;28;20142;-75
2023/01/09 04:33:09;;;;;;;11.05;7.82;;;;;;;8.62;100.00;101782.50;2099813;28;20055;-74
2023/01/09 04:34:34;;;;;;;14.23;8.40;;;;;;;8.57;100.00;101789.31;2102300;28;20877;-75
2023/01/09 04:35:55;;;;;;;13.52;8.20;;;;;;;8.59;100.00;101787.66;2103290;28;20040;-74
2023/01/09 04:37:17;;;;;;;13.52;10.43;;;;;;;8.64;100.00;101785.22;2087366;28;20056;-74
2023/01/09 04:38:39;;;;;;;14.32;8.88;;;;;;;8.67;100.00;101793.22;2084276;28;20091;-74
2023/01/09 04:40:04;;;;;;;14.48;9.57;;;;;;;8.67;100.00;101791.47;2097642;28;20119;-75
2023/01/09 04:43:06;;;;;;;12.85;8.95;;;;;;;8.60;100.00;101788.56;2105512;28;20504;-73
2023/01/09 04:44:28;;;;;;;15.02;9.18;;;;;;;8.60;100.00;101788.56;2103245;28;20044;-74
2023/01/09 04:45:50;;;;;;;;;;;;;;;8.58;100.00;101791.13;2097949;28;20055;-75
2023/01/09 04:47:12;;;;;;;26.83;20.23;;;;;;;8.59;100.00;101787.66;2096584;28;19924;-75
2023/01/09 04:48:34;;;;;;;;;;;;;;;8.53;100.00;101795.31;2095391;28;20423;-75
2023/01/09 04:49:57;;;;;;;16.48;11.50;;;;;;;8.49;100.00;101792.47;2086387;28;19921;-74
2023/01/09 04:51:19;;;;;;;12.90;8.68;;;;;;;8.48;100.00;101796.84;2095099;28;20458;-74
2023/01/09 04:52:42;;;;;;;13.63;8.68;;;;;;;8.47;100.00;101800.31;2095062;28;20496;-75
2023/01/09 04:54:04;;;;;;;14.48;8.95;;;;;;;8.47;100.00;101795.03;2089203;28;20048;-74
2023/01/09 04:55:26;;;;;;;;;;;;;;;8.44;100.00;101800.19;2092939;28;20131;-75
2023/01/09 04:56:48;;;;;;;15.75;9.45;;;;;;;8.47;100.00;101802.06;2096946;28;20400;-75
2023/01/09 04:58:10;;;;;;;16.50;10.15;;;;;;;8.48;100.00;101804.72;2097069;28;20134;-74
2023/01/09 04:59:32;;;;;;;17.35;10.20;;;;;;;8.49;100.00;101798.63;2092485;28;20060;-75
2023/01/09 05:00:54;;;;;;;17.02;9.80;;;;;;;8.46;100.00;101803.78;2091646;28;20602;-75
2023/01/09 05:02:15;;;;;;;21.83;13.02;;;;;;;8.44;100.00;101802.81;2094950;28;20467;-74
2023/01/09 05:03:38;;;;;;;21.92;14.40;;;;;;;8.44;100.00;101805.47;2091907;28;20165;-75
2023/01/09 05:05:02;;;;;;;29.95;20.67;;;;;;;8.47;100.00;101802.06;2094653;28;20122;-75
2023/01/09 05:06:23;;;;;;;30.48;23.05;;;;;;;8.46;100.00;101811.69;2092617;28;20125;-75
2023/01/09 05:07:46;;;;;;;30.98;22.73;;;;;;;8.45;100.00;101815.16;2098702;28;20044;-74
2023/01/09 05:09:08;;;;;;;30.08;20.50;;;;;;;8.51;100.00;101810.13;2103248;28;20051;-75
2023/01/09 05:10:30;;;;;;;37.30;29.65;;;;;;;8.57;100.00;101812.13;2094916;28;20475;-75
2023/01/09 05:11:52;;;;;;;53.00;45.00;;;;;;;8.62;100.00;101818.44;2092061;28;20152;-74
2023/01/09 05:13:14;;;;;;;48.58;41.55;;;;;;;8.63;100.00;101820.25;2100442;28;20066;-74
2023/01/09 05:14:36;;;;;;;38.65;33.63;;;;;;;8.66;100.00;101820.41;2103120;28;20040;-74
2023/01/09 05:15:58;;;;;;;41.58;35.50;;;;;;;8.65;100.00;101811.59;2105668;28;20040;-74
2023/01/09 05:17:20;;;;;;;40.25;31.95;;;;;;;8.64;100.00;101812.44;2103287;28;20086;-74
2023/01/09 05:18:42;;;;;;;31.83;26.77;;;;;;;8.61;100.00;101807.03;2105754;28;20109;-75
2023/01/09 05:20:07;;;;;;;48.75;42.13;;;;;;;8.59;100.00;101807.81;2102806;28;20043;-74
2023/01/09 05:21:30;;;;;;;46.15;41.15;;;;;;;8.57;100.00;101815.66;2111626;28;20104;-75
2023/01/09 05:22:52;;;;;;;51.42;43.05;;;;;;;8.56;100.00;101813.84;2105197;28;20372;-75
2023/01/09 05:24:13;;;;;;;46.38;41.20;;;;;;;8.58;100.00;101808.66;2094244;28;20045;-75
2023/01/09 05:25:36;;;;;;;39.92;30.15;;;;;;;8.60;100.00;101813.13;2097108;28;20492;-74
2023/01/09 05:26:58;;;;;;;33.75;27.27;;;;;;;8.69;100.00;101817.88;2109014;28;20555;-74
2023/01/09 05:28:21;;;;;;;27.73;20.30;;;;;;;8.75;100.00;101818.09;2097300;28;20378;-75
2023/01/09 05:29:43;;;;;;;28.42;21.85;;;;;;;8.77;100.00;101817.34;2108763;28;20445;-74
2023/01/09 05:31:05;;;;;;;21.58;16.63;;;;;;;8.82;100.00;101825.41;2105783;28;20097;-75
2023/01/09 05:32:27;;;;;;;32.63;22.98;;;;;;;8.88;100.00;101822.13;2086096;28;20053;-74
2023/01/09 05:33:48;;;;;;;24.25;18.27;;;;;;;8.95;100.00;101816.25;2092018;28;20139;-74
2023/01/09 05:35:12;;;;;;;23.70;16.55;;;;;;;9.01;100.00;101820.03;2097402;28;20048;-74
2023/01/09 05:36:35;;;;;;;19.73;15.50;;;;;;;9.05;100.00;101819.31;2094781;28;20477;-74
2023/01/09 05:37:57;;;;;;;19.20;15.40;;;;;;;9.04;100.00;101820.16;2100253;28;20110;-74
2023/01/09 05:39:19;;;;;;;14.60;11.00;;;;;;;9.00;100.00;101823.50;2097148;28;20056;-74
2023/01/09 05:40:42;;;;;;;20.40;14.25;;;;;;;8.97;100.00;101819.84;2092225;28;20048;-75
2023/01/09 05:42:04;;;;;;;20.98;17.27;;;;;;;8.93;100.00;101817.94;2087547;28;20053;-74
2023/01/09 05:43:27;;;;;;;23.02;16.25;;;;;;;8.95;100.00;101821.53;2103063;28;20475;-75
2023/01/09 05:44:50;;;;;;;27.70;21.17;;;;;;;9.00;100.00;101822.59;2094628;28;20040;-75
2023/01/09 05:46:12;;;;;;;25.10;18.35;;;;;;;9.09;100.00;101825.59;2094293;28;20113;-75
2023/01/09 05:47:34;;;;;;;20.13;15.23;;;;;;;9.15;100.00;101828.47;2096264;28;20029;-74
2023/01/09 05:48:57;;;;;;;20.80;16.33;;;;;;;9.21;100.00;101828.69;2099661;28;20127;-75
2023/01/09 05:50:20;;;;;;;18.52;13.32;;;;;;;9.26;100.00;101831.50;2102020;28;20039;-75
2023/01/09 05:51:42;;;;;;;30.45;21.13;;;;;;;9.25;100.00;101833.25;2103110;28;20055;-75
2023/01/09 05:53:05;;;;;;;27.73;20.92;;;;;;;9.25;100.00;101835.91;2093281;28;20055;-75
2023/01/09 05:54:26;;;;;;;36.97;29.48;;;;;;;9.24;100.00;101834.09;2097408;28;20048;-75
2023/01/09 05:55:49;;;;;;;41.20;33.15;;;;;;;9.23;100.00;101834.03;2097305;28;20048;-75
2023/01/09 05:57:11;;;;;;;41.08;32.75;;;;;;;9.23;100.00;101832.28;2086146;28;20060;-75
2023/01/09 05:58:33;;;;;;;29.30;24.30;;;;;;;9.25;100.00;101835.91;2099742;28;20052;-75
2023/01/09 05:59:56;;;;;;;33.85;27.52;;;;;;;9.29;100.00;101831.63;2102506;28;20047;-75
2023/01/09 06:01:18;;;;;;;37.22;32.65;;;;;;;9.33;100.00;101834.44;2096864;28;20052;-75
2023/01/09 06:02:41;;;;;;;46.78;41.28;;;;;;;9.36;100.00;101838.94;2094517;28;20044;-75
2023/01/09 06:04:03;;;;;;;44.90;40.10;;;;;;;9.35;100.00;101835.38;2091662;28;20047;-75
2023/01/09 06:05:26;;;;;;;34.03;29.52;;;;;;;9.35;100.00;101840.66;2099942;28;20151;-75
2023/01/09 06:06:48;;;;;;;33.47;29.88;;;;;;;9.34;100.00;101838.84;2094363;28;20043;-75
2023/01/09 06:08:10;;;;;;;32.85;29.13;;;;;;;9.36;100.00;101844.19;2108169;28;20062;-75
2023/01/09 06:09:32;;;;;;;28.50;23.92;;;;;;;9.35;100.00;101843.28;2105268;28;20106;-74
2023/01/09 06:10:54;;;;;;;27.50;22.77;;;;;;;9.37;100.00;101846.00;2094537;28;20048;-75
2023/01/09 06:12:17;;;;;;;26.58;22.50;;;;;;;9.37;100.00;101841.63;2099691;28;20044;-74
2023/01/09 06:13:39;;;;;;;27.48;22.88;;;;;;;9.38;100.00;101840.78;2101178;28;20446;-75
2023/01/09 06:15:01;;;;;;;32.58;25.77;;;;;;;9.40;100.00;101836.44;2096411;28;20041;-75
2023/01/09 06:16:23;;;;;;;25.13;20.85;;;;;;;9.42;100.00;101842.69;2083120;28;20049;-76
2023/01/09 06:17:44;;;;;;;28.00;23.55;;;;;;;9.47;100.00;101843.75;2091748;28;20032;-76
2023/01/09 06:19:07;;;;;;;25.48;20.05;;;;;;;9.49;100.00;101844.72;2094657;28;20057;-76
2023/01/09 06:20:32;;;;;;;27.45;21.90;;;;;;;9.56;100.00;101849.38;2102455;28;20044;-76
2023/01/09 06:21:53;;;;;;;27.30;22.65;;;;;;;9.68;100.00;101841.00;2096766;28;20202;-76
2023/01/09 06:23:15;;;;;;;23.15;19.13;;;;;;;9.83;100.00;101846.84;2091738;28;20472;-76
2023/01/09 06:24:38;;;;;;;16.98;14.75;;;;;;;10.03;100.00;101851.94;2085925;28;20084;-76
2023/01/09 06:26:00;;;;;;;16.77;14.27;;;;;;;10.25;100.00;101846.56;2091690;28;20508;-76
2023/01/09 06:27:22;;;;;;;14.95;11.73;;;;;;;10.47;100.00;101851.75;2102536;28;20626;-75
2023/01/09 06:28:45;;;;;;;14.73;11.70;;;;;;;10.68;100.00;101852.47;2102117;28;20766;-75
2023/01/09 06:30:07;;;;;;;15.40;10.70;;;;;;;10.92;100.00;101857.63;2102383;28;20063;-75
2023/01/09 06:31:30;;;;;;;15.73;11.63;;;;;;;11.11;100.00;101857.34;2102910;28;20071;-76
2023/01/09 06:32:51;;;;;;;17.58;12.63;;;;;;;11.29;100.00;101854.34;2100141;28;20048;-75
2023/01/09 06:34:13;;;;;;;18.75;13.68;;;;;;;11.43;100.00;101862.69;2093993;28;20392;-76